createdAt,value
2024-05-09T00:00:40.151Z,11.20
2024-05-09T00:03:09.726Z,11.20
2024-05-09T00:05:38.101Z,11.20
2024-05-09T00:08:06.621Z,11.20
2024-05-09T00:10:37.438Z,11.10
2024-05-09T00:13:07.073Z,11.10
2024-05-09T00:15:35.049Z,11.10
2024-05-09T00:18:03.255Z,11.10
2024-05-09T00:20:37.819Z,11.10
2024-05-09T00:23:13.896Z,11.00
2024-05-09T00:25:43.856Z,11.00
2024-05-09T00:28:12.199Z,11.00
2024-05-09T00:30:39.323Z,11.00
2024-05-09T00:33:08.273Z,10.90
2024-05-09T00:35:37.015Z,10.90
2024-05-09T00:38:04.665Z,10.90
2024-05-09T00:40:40.038Z,10.80
2024-05-09T00:43:10.691Z,10.80
2024-05-09T00:45:37.898Z,10.80
2024-05-09T00:48:07.730Z,10.80
2024-05-09T00:50:39.102Z,10.70
2024-05-09T00:53:14.184Z,10.70
2024-05-09T00:55:41.795Z,10.70
2024-05-09T00:58:12.266Z,10.70
2024-05-09T01:00:41.314Z,10.60
2024-05-09T01:03:11.498Z,10.60
2024-05-09T01:05:40.676Z,10.60
2024-05-09T01:08:09.110Z,10.60
2024-05-09T01:10:37.479Z,10.60
2024-05-09T01:13:05.233Z,10.60
2024-05-09T01:15:32.992Z,10.60
2024-05-09T01:18:04.812Z,10.60
2024-05-09T01:20:40.770Z,10.60
2024-05-09T01:23:11.447Z,10.60
2024-05-09T01:25:38.872Z,10.50
2024-05-09T01:28:06.298Z,10.50
2024-05-09T01:30:36.084Z,10.40
2024-05-09T01:33:09.621Z,10.40
2024-05-09T01:35:39.332Z,10.40
2024-05-09T01:38:07.017Z,10.40
2024-05-09T01:40:38.639Z,10.40
2024-05-09T01:43:11.198Z,10.40
2024-05-09T01:45:39.977Z,10.30
2024-05-09T01:48:08.020Z,10.30
2024-05-09T01:50:39.633Z,10.30
2024-05-09T01:53:10.639Z,10.30
2024-05-09T01:55:38.055Z,10.30
2024-05-09T01:58:05.355Z,10.30
2024-05-09T02:00:39.168Z,10.30
2024-05-09T02:03:12.485Z,10.20
2024-05-09T02:05:43.235Z,10.20
2024-05-09T02:08:18.295Z,10.20
2024-05-09T02:10:47.295Z,10.20
2024-05-09T02:13:15.566Z,10.20
2024-05-09T02:15:42.709Z,10.20
2024-05-09T02:18:10.388Z,10.10
2024-05-09T02:20:42.080Z,10.10
2024-05-09T02:23:09.880Z,10.10
2024-05-09T02:25:37.100Z,10.10
2024-05-09T02:28:04.162Z,10.10
2024-05-09T02:30:39.462Z,10.10
2024-05-09T02:33:10.763Z,10.10
2024-05-09T02:35:39.597Z,10.10
2024-05-09T02:38:07.036Z,10.00
2024-05-09T02:40:37.903Z,10.00
2024-05-09T02:43:13.099Z,10.00
2024-05-09T02:45:40.787Z,9.90
2024-05-09T02:48:10.958Z,9.90
2024-05-09T02:50:40.810Z,9.90
2024-05-09T02:53:09.611Z,9.90
2024-05-09T02:55:43.546Z,9.80
2024-05-09T02:58:11.054Z,9.80
2024-05-09T03:00:41.536Z,9.80
2024-05-09T03:03:15.117Z,9.70
2024-05-09T03:05:44.503Z,9.70
2024-05-09T03:08:12.167Z,9.70
2024-05-09T03:10:39.847Z,9.70
2024-05-09T03:13:11.904Z,9.70
2024-05-09T03:15:39.579Z,9.70
2024-05-09T03:18:07.182Z,9.60
2024-05-09T03:20:36.022Z,9.60
2024-05-09T03:23:05.731Z,9.60
2024-05-09T03:25:33.229Z,9.50
2024-05-09T03:28:00.301Z,9.50
2024-05-09T03:30:38.684Z,9.50
2024-05-09T03:33:15.527Z,9.50
2024-05-09T03:35:46.141Z,9.50
2024-05-09T03:38:13.304Z,9.40
2024-05-09T03:40:48.761Z,9.40
2024-05-09T03:43:16.638Z,9.40
2024-05-09T03:45:44.136Z,9.40
2024-05-09T03:48:11.588Z,9.40
2024-05-09T03:50:38.974Z,9.40
2024-05-09T03:53:09.490Z,9.40
2024-05-09T03:55:36.510Z,9.40
2024-05-09T03:58:03.485Z,9.40
2024-05-09T04:00:36.922Z,9.30
2024-05-09T04:03:08.713Z,9.40
2024-05-09T04:05:40.019Z,9.30
2024-05-09T04:08:07.918Z,9.30
2024-05-09T04:10:35.525Z,9.30
2024-05-09T04:13:03.916Z,9.30
2024-05-09T04:15:31.441Z,9.30
2024-05-09T04:17:58.766Z,9.30
2024-05-09T04:20:36.009Z,9.30
2024-05-09T04:23:08.059Z,9.30
2024-05-09T04:25:35.981Z,9.30
2024-05-09T04:28:03.169Z,9.30
2024-05-09T04:30:36.749Z,9.40
2024-05-09T04:33:08.485Z,9.40
2024-05-09T04:35:37.493Z,9.40
2024-05-09T04:38:05.247Z,9.40
2024-05-09T04:40:35.543Z,9.40
2024-05-09T04:43:14.011Z,9.40
2024-05-09T04:45:41.188Z,9.40
2024-05-09T04:48:08.994Z,9.50
2024-05-09T04:50:38.857Z,9.50
2024-05-09T04:53:10.477Z,9.50
2024-05-09T04:55:39.061Z,9.50
2024-05-09T04:58:08.500Z,9.60
2024-05-09T05:00:37.581Z,9.60
2024-05-09T05:03:09.334Z,9.60
2024-05-09T05:05:41.448Z,9.70
2024-05-09T05:08:16.482Z,9.70
2024-05-09T05:10:44.368Z,9.80
2024-05-09T05:13:23.061Z,9.90
2024-05-09T05:15:55.749Z,10.00
2024-05-09T05:18:23.945Z,10.10
2024-05-09T05:23:22.462Z,10.20
2024-05-09T05:25:51.428Z,10.20
2024-05-09T05:28:18.960Z,10.30
2024-05-09T05:30:46.947Z,10.30
2024-05-09T05:33:15.402Z,10.40
2024-05-09T05:35:42.863Z,10.40
2024-05-09T05:38:10.613Z,10.50
2024-05-09T05:40:38.841Z,10.50
2024-05-09T05:43:10.786Z,10.60
2024-05-09T05:45:38.944Z,10.60
2024-05-09T05:48:07.273Z,10.70
2024-05-09T05:50:37.076Z,10.80
2024-05-09T05:53:09.687Z,10.80
2024-05-09T05:55:39.012Z,10.90
2024-05-09T05:58:09.549Z,10.90
2024-05-09T06:00:39.212Z,11.00
2024-05-09T06:03:08.599Z,11.00
2024-05-09T06:05:37.160Z,11.10
2024-05-09T06:08:04.728Z,11.20
2024-05-09T06:10:38.063Z,11.20
2024-05-09T06:13:07.827Z,11.30
2024-05-09T06:15:34.991Z,11.40
2024-05-09T06:18:04.629Z,11.50
2024-05-09T06:20:35.987Z,11.50
2024-05-09T06:23:06.343Z,11.60
2024-05-09T06:25:34.249Z,11.60
2024-05-09T06:28:01.785Z,11.70
2024-05-09T06:30:37.305Z,11.70
2024-05-09T06:33:08.857Z,11.80
2024-05-09T06:35:36.826Z,11.90
2024-05-09T06:38:04.202Z,11.90
2024-05-09T06:40:37.343Z,12.00
2024-05-09T06:43:11.890Z,12.10
2024-05-09T06:45:39.998Z,12.10
2024-05-09T06:48:08.677Z,12.20
2024-05-09T06:50:38.254Z,12.20
2024-05-09T06:53:07.123Z,12.30
2024-05-09T06:55:34.225Z,12.40
2024-05-09T06:58:01.116Z,12.40
2024-05-09T07:00:35.662Z,12.50
2024-05-09T07:03:11.191Z,12.50
2024-05-09T07:05:39.424Z,12.60
2024-05-09T07:08:07.092Z,12.70
2024-05-09T07:10:36.213Z,12.70
2024-05-09T07:13:08.002Z,12.80
2024-05-09T07:15:34.932Z,12.80
2024-05-09T07:18:08.093Z,12.90
2024-05-09T07:20:35.390Z,12.90
2024-05-09T07:23:03.505Z,13.00
2024-05-09T07:25:31.685Z,13.10
2024-05-09T07:27:58.674Z,13.10
2024-05-09T07:30:32.848Z,13.20
2024-05-09T07:33:02.360Z,13.20
2024-05-09T07:35:30.256Z,13.30
2024-05-09T07:37:57.544Z,13.40
2024-05-09T07:40:32.875Z,13.40
2024-05-09T07:43:08.283Z,13.40
2024-05-09T07:52:45.967Z,13.70
2024-05-09T07:55:56.017Z,13.90
2024-05-09T07:58:27.617Z,13.90
2024-05-09T08:00:55.119Z,14.00
2024-05-09T08:03:22.861Z,14.00
2024-05-09T08:05:51.675Z,14.10
2024-05-09T08:08:18.776Z,14.20
2024-05-09T08:10:46.448Z,14.30
2024-05-09T08:13:13.699Z,14.50
2024-05-09T08:15:40.672Z,14.60
2024-05-09T08:18:11.323Z,14.80
2024-05-09T08:20:39.322Z,15.00
2024-05-09T08:23:06.707Z,15.20
2024-05-09T08:25:33.953Z,15.40
2024-05-09T08:28:01.030Z,15.50
2024-05-09T08:30:33.740Z,15.70
2024-05-09T08:33:05.164Z,15.70
2024-05-09T08:35:33.087Z,15.80
2024-05-09T08:38:00.345Z,15.90
2024-05-09T08:40:33.731Z,16.00
2024-05-09T08:43:06.109Z,16.00
2024-05-09T08:45:35.120Z,16.00
2024-05-09T08:48:07.770Z,16.00
2024-05-09T08:50:39.086Z,16.10
2024-05-09T08:53:08.210Z,16.30
2024-05-09T08:55:39.445Z,16.30
2024-05-09T08:58:13.978Z,16.50
2024-05-09T09:00:43.164Z,16.70
2024-05-09T09:03:15.181Z,16.90
2024-05-09T09:05:51.811Z,16.90
2024-05-09T09:08:20.100Z,17.00
2024-05-09T09:10:47.981Z,17.00
2024-05-09T09:13:15.017Z,17.20
2024-05-09T09:15:49.464Z,17.30
2024-05-09T09:18:17.340Z,17.60
2024-05-09T09:20:44.894Z,17.80
2024-05-09T09:23:11.927Z,18.10
2024-05-09T09:25:42.547Z,18.10
2024-05-09T09:28:09.957Z,18.00
2024-05-09T09:30:41.595Z,17.70
2024-05-09T09:33:09.954Z,17.80
2024-05-09T09:35:39.393Z,17.90
2024-05-09T09:38:08.290Z,17.90
2024-05-09T09:40:40.988Z,18.00
2024-05-09T09:43:18.703Z,18.10
2024-05-09T09:45:50.040Z,18.30
2024-05-09T09:48:17.235Z,18.60
2024-05-09T09:50:52.574Z,18.80
2024-05-09T09:53:20.066Z,19.00
2024-05-09T09:55:48.287Z,19.00
2024-05-09T09:58:17.839Z,19.10
2024-05-09T10:00:45.508Z,19.20
2024-05-09T10:03:12.657Z,19.30
2024-05-09T10:05:42.222Z,19.60
2024-05-09T10:08:12.411Z,19.80
2024-05-09T10:10:39.990Z,20.00
2024-05-09T10:13:08.481Z,20.10
2024-05-09T10:15:54.797Z,20.30
2024-05-09T10:18:28.434Z,20.30
2024-05-09T10:20:57.790Z,20.30
2024-05-09T10:23:29.623Z,20.20
2024-05-09T10:26:01.892Z,20.10
2024-05-09T10:28:29.553Z,20.10
2024-05-09T10:31:06.996Z,20.30
2024-05-09T10:33:49.969Z,20.40
2024-05-09T10:36:27.103Z,20.50
2024-05-09T10:38:54.803Z,20.80
2024-05-09T10:41:22.997Z,20.80
2024-05-09T10:43:50.836Z,21.00
2024-05-09T10:46:20.912Z,21.20
2024-05-09T10:48:48.795Z,21.50
2024-05-09T10:51:18.286Z,21.70
2024-05-09T10:53:47.083Z,21.70
2024-05-09T10:56:14.435Z,22.00
2024-05-09T10:58:41.899Z,21.90
2024-05-09T11:01:10.191Z,21.90
2024-05-09T11:03:38.771Z,21.80
2024-05-09T11:06:06.804Z,21.70
2024-05-09T11:08:35.082Z,21.60
2024-05-09T11:11:07.477Z,21.60
2024-05-09T11:13:37.113Z,21.50
2024-05-09T11:16:05.368Z,21.50
2024-05-09T11:18:36.620Z,21.60
2024-05-09T11:21:13.198Z,21.40
2024-05-09T11:23:40.958Z,21.20
2024-05-09T11:26:07.997Z,20.90
2024-05-09T11:28:34.989Z,20.80
2024-05-09T11:31:10.212Z,21.10
2024-05-09T11:33:39.565Z,20.90
2024-05-09T11:36:07.842Z,20.80
2024-05-09T11:38:34.955Z,20.60
2024-05-09T11:41:02.688Z,20.50
2024-05-09T11:43:29.824Z,20.70
2024-05-09T11:45:57.883Z,21.00
2024-05-09T11:48:25.846Z,21.30
2024-05-09T11:50:54.687Z,21.60
2024-05-09T11:53:21.601Z,21.90
2024-05-09T11:55:48.685Z,22.10
2024-05-09T11:58:17.893Z,22.10
2024-05-09T12:00:45.824Z,21.90
2024-05-09T12:03:13.174Z,21.70
2024-05-09T12:05:40.406Z,21.50
2024-05-09T12:08:07.749Z,21.20
2024-05-09T12:10:36.312Z,21.30
2024-05-09T12:13:06.316Z,21.50
2024-05-09T12:15:37.765Z,21.70
2024-05-09T12:18:06.634Z,21.90
2024-05-09T12:20:38.134Z,21.90
2024-05-09T12:23:08.269Z,22.00
2024-05-09T12:25:37.042Z,22.00
2024-05-09T12:28:04.452Z,22.00
2024-05-09T12:30:36.985Z,21.70
2024-05-09T12:33:12.108Z,21.70
2024-05-09T12:35:44.286Z,21.70
2024-05-09T12:38:14.431Z,21.60
2024-05-09T12:40:42.305Z,21.80
2024-05-09T12:43:10.419Z,21.90
2024-05-09T12:45:38.637Z,21.90
2024-05-09T12:48:08.555Z,22.10
2024-05-09T12:50:36.398Z,22.10
2024-05-09T12:53:04.523Z,21.80
2024-05-09T12:55:41.046Z,21.40
2024-05-09T12:58:19.352Z,21.10
2024-05-09T13:00:46.995Z,21.10
2024-05-09T13:03:14.498Z,21.30
2024-05-09T13:05:42.122Z,21.60
2024-05-09T13:08:09.456Z,21.70
2024-05-09T13:10:37.083Z,22.00
2024-05-09T13:13:04.442Z,22.00
2024-05-09T13:15:34.562Z,21.90
2024-05-09T13:18:03.382Z,21.80
2024-05-09T13:20:34.289Z,21.90
2024-05-09T13:23:03.714Z,22.00
2024-05-09T13:25:30.751Z,22.00
2024-05-09T13:27:58.368Z,21.90
2024-05-09T13:30:34.871Z,22.00
2024-05-09T13:33:07.352Z,22.00
2024-05-09T13:35:35.720Z,22.00
2024-05-09T13:38:04.140Z,21.90
2024-05-09T13:40:34.679Z,21.80
2024-05-09T13:43:07.023Z,21.40
2024-05-09T13:45:35.197Z,21.20
2024-05-09T13:48:04.075Z,21.10
2024-05-09T13:50:35.175Z,21.10
2024-05-09T13:53:06.189Z,21.10
2024-05-09T13:55:35.351Z,21.20
2024-05-09T13:58:02.699Z,21.10
2024-05-09T14:00:43.559Z,21.00
2024-05-09T14:03:15.264Z,21.00
2024-05-09T14:05:43.171Z,21.00
2024-05-09T14:08:10.346Z,21.00
2024-05-09T14:10:44.013Z,21.00
2024-05-09T14:13:11.702Z,21.00
2024-05-09T14:15:38.914Z,21.10
2024-05-09T14:18:10.351Z,21.10
2024-05-09T14:20:39.772Z,21.20
2024-05-09T14:23:06.683Z,21.10
2024-05-09T14:25:37.665Z,21.10
2024-05-09T14:28:07.513Z,21.10
2024-05-09T14:30:37.673Z,21.50
2024-05-09T14:33:06.910Z,21.80
2024-05-09T14:35:34.790Z,22.10
2024-05-09T14:38:01.971Z,22.10
2024-05-09T14:40:39.065Z,21.90
2024-05-09T14:43:11.533Z,21.60
2024-05-09T14:45:38.915Z,21.60
2024-05-09T14:48:07.111Z,21.80
2024-05-09T14:50:37.915Z,21.90
2024-05-09T14:53:11.220Z,22.00
2024-05-09T14:55:40.433Z,22.10
2024-05-09T14:58:10.197Z,22.00
2024-05-09T15:00:42.250Z,21.50
2024-05-09T15:03:12.238Z,21.20
2024-05-09T15:05:40.261Z,21.40
2024-05-09T15:08:08.678Z,21.60
2024-05-09T15:10:37.199Z,21.90
2024-05-09T15:13:07.278Z,22.00
2024-05-09T15:15:36.124Z,22.20
2024-05-09T15:18:05.165Z,22.30
2024-05-09T15:20:36.079Z,22.20
2024-05-09T15:23:05.140Z,22.30
2024-05-09T15:25:33.798Z,22.50
2024-05-09T15:28:01.287Z,22.70
2024-05-09T15:30:31.738Z,22.90
2024-05-09T15:33:01.397Z,22.60
2024-05-09T15:35:28.702Z,22.20
2024-05-09T15:37:56.334Z,22.20
2024-05-09T15:40:31.619Z,22.50
2024-05-09T15:43:05.828Z,22.90
2024-05-09T15:45:33.273Z,23.40
2024-05-09T15:48:01.705Z,23.80
2024-05-09T15:50:36.530Z,23.50
2024-05-09T15:53:08.243Z,22.80
2024-05-09T15:55:36.122Z,22.30
2024-05-09T15:58:04.791Z,22.50
2024-05-09T16:00:38.066Z,23.30
2024-05-09T16:03:13.445Z,23.90
2024-05-09T16:05:43.631Z,24.40
2024-05-09T16:08:12.021Z,24.70
2024-05-09T16:10:43.492Z,25.00
2024-05-09T16:13:11.882Z,25.50
2024-05-09T16:15:39.039Z,25.60
2024-05-09T16:18:06.696Z,25.00
2024-05-09T16:20:39.229Z,24.70
2024-05-09T16:23:08.966Z,24.00
2024-05-09T16:25:36.473Z,23.30
2024-05-09T16:28:08.546Z,22.70
2024-05-09T16:30:40.625Z,22.70
2024-05-09T16:33:08.656Z,22.90
2024-05-09T16:35:37.092Z,23.20
2024-05-09T16:38:04.764Z,23.10
2024-05-09T16:40:38.200Z,22.60
2024-05-09T16:43:12.138Z,22.20
2024-05-09T16:45:41.090Z,21.80
2024-05-09T16:48:08.677Z,21.30
2024-05-09T16:50:36.717Z,20.90
2024-05-09T16:53:05.908Z,20.60
2024-05-09T16:55:33.826Z,20.40
2024-05-09T16:58:01.728Z,20.20
2024-05-09T17:00:38.541Z,20.00
2024-05-09T17:03:10.476Z,19.80
2024-05-09T17:05:38.957Z,19.70
2024-05-09T17:08:06.836Z,19.70
2024-05-09T17:10:35.270Z,19.60
2024-05-09T17:13:04.527Z,19.60
2024-05-09T17:15:33.532Z,19.50
2024-05-09T17:18:01.622Z,19.50
2024-05-09T17:20:33.549Z,19.40
2024-05-09T17:23:03.565Z,19.30
2024-05-09T17:25:30.849Z,19.20
2024-05-09T17:28:05.638Z,19.10
2024-05-09T17:30:36.773Z,18.90
2024-05-09T17:33:07.736Z,18.80
2024-05-09T17:35:36.223Z,18.60
2024-05-09T17:38:03.913Z,18.50
2024-05-09T17:40:34.866Z,18.50
2024-05-09T17:43:05.128Z,18.40
2024-05-09T17:45:32.918Z,18.40
2024-05-09T17:48:00.798Z,18.30
2024-05-09T17:50:35.051Z,18.30
2024-05-09T17:53:07.320Z,18.30
2024-05-09T17:55:34.953Z,18.30
2024-05-09T17:58:02.403Z,18.30
2024-05-09T18:00:37.405Z,18.30
2024-05-09T18:03:08.399Z,18.30
2024-05-09T18:05:36.996Z,18.30
2024-05-09T18:08:05.477Z,18.40
2024-05-09T18:10:36.860Z,18.30
2024-05-09T18:13:12.195Z,18.30
2024-05-09T18:15:39.640Z,18.30
2024-05-09T18:18:07.572Z,18.30
2024-05-09T18:20:43.177Z,18.30
2024-05-09T18:23:14.077Z,18.30
2024-05-09T18:25:41.843Z,18.30
2024-05-09T18:28:09.073Z,18.40
2024-05-09T18:30:37.365Z,18.40
2024-05-09T18:33:07.157Z,18.40
2024-05-09T18:35:35.720Z,18.30
2024-05-09T18:38:03.291Z,18.30
2024-05-09T18:40:34.590Z,18.20
2024-05-09T18:43:06.255Z,18.10
2024-05-09T18:45:35.101Z,17.90
2024-05-09T18:48:04.789Z,17.80
2024-05-09T18:50:36.182Z,17.60
2024-05-09T18:53:06.464Z,17.60
2024-05-09T18:55:33.650Z,17.50
2024-05-09T18:58:01.055Z,17.40
2024-05-09T19:00:34.614Z,17.30
2024-05-09T19:03:09.372Z,17.20
2024-05-09T19:05:38.772Z,17.10
2024-05-09T19:08:07.441Z,17.10
2024-05-09T19:10:35.924Z,17.00
2024-05-09T19:13:08.265Z,16.80
2024-05-09T19:15:39.337Z,16.80
2024-05-09T19:18:07.443Z,16.70
2024-05-09T19:20:36.240Z,16.60
2024-05-09T19:23:04.935Z,16.60
2024-05-09T19:25:32.992Z,16.50
2024-05-09T19:28:00.760Z,16.50
2024-05-09T19:30:36.858Z,16.40
2024-05-09T19:33:08.203Z,16.30
2024-05-09T19:35:35.524Z,16.30
2024-05-09T19:38:02.979Z,16.20
2024-05-09T19:40:32.437Z,16.20
2024-05-09T19:43:05.807Z,16.10
2024-05-09T19:45:35.142Z,16.10
2024-05-09T19:48:03.653Z,16.00
2024-05-09T19:50:37.541Z,16.00
2024-05-09T19:53:10.099Z,15.90
2024-05-09T19:55:39.961Z,15.90
2024-05-09T19:58:08.406Z,15.80
2024-05-09T20:00:39.051Z,15.80
2024-05-09T20:03:08.722Z,15.80
2024-05-09T20:05:36.454Z,15.80
2024-05-09T20:08:04.317Z,15.70
2024-05-09T20:10:33.463Z,15.70
2024-05-09T20:13:02.841Z,15.60
2024-05-09T20:15:30.523Z,15.60
2024-05-09T20:17:57.541Z,15.60
2024-05-09T20:20:33.404Z,15.60
2024-05-09T20:23:06.435Z,15.50
2024-05-09T20:25:33.378Z,15.50
2024-05-09T20:28:00.487Z,15.40
2024-05-09T20:30:32.189Z,15.40
2024-05-09T20:33:03.583Z,15.40
2024-05-09T20:35:32.432Z,15.40
2024-05-09T20:38:01.012Z,15.40
2024-05-09T20:40:32.904Z,15.40
2024-05-09T20:43:03.846Z,15.30
2024-05-09T20:45:30.971Z,15.30
2024-05-09T20:47:58.310Z,15.30
2024-05-09T20:50:35.652Z,15.20
2024-05-09T20:53:12.615Z,15.20
2024-05-09T20:55:40.790Z,15.20
2024-05-09T20:58:08.731Z,15.20
2024-05-09T21:00:40.358Z,15.20
2024-05-09T21:03:11.700Z,15.10
2024-05-09T21:05:39.605Z,15.10
2024-05-09T21:08:07.315Z,15.00
2024-05-09T21:10:35.867Z,15.00
2024-05-09T21:13:03.835Z,14.90
2024-05-09T21:15:31.961Z,14.90
2024-05-09T21:17:59.347Z,14.90
2024-05-09T21:22:56.932Z,14.80
2024-05-09T21:25:23.884Z,14.80
2024-05-09T21:27:51.023Z,14.80
2024-05-09T21:30:27.302Z,14.80
2024-05-09T21:33:00.162Z,14.80
2024-05-09T21:35:27.071Z,14.90
2024-05-09T21:37:53.955Z,14.90
2024-05-09T21:40:30.615Z,14.90
2024-05-09T21:43:01.194Z,14.90
2024-05-09T21:45:28.230Z,14.90
2024-05-09T21:47:55.647Z,14.90
2024-05-09T21:50:28.518Z,14.80
2024-05-09T21:53:03.619Z,14.80
2024-05-09T21:55:31.813Z,14.90
2024-05-09T21:58:01.232Z,14.80
2024-05-09T22:00:35.509Z,14.90
2024-05-09T22:03:06.178Z,14.80
2024-05-09T22:05:33.765Z,14.80
2024-05-09T22:08:01.152Z,14.80
2024-05-09T22:10:33.822Z,14.80
2024-05-09T22:13:04.707Z,14.80
2024-05-09T22:15:37.174Z,14.80
2024-05-09T22:18:05.937Z,14.70
2024-05-09T22:20:37.419Z,14.70
2024-05-09T22:23:06.575Z,14.70
2024-05-09T22:25:33.811Z,14.70
2024-05-09T22:28:02.225Z,14.60
2024-05-09T22:32:59.449Z,14.60
2024-05-09T22:35:26.504Z,14.60
2024-05-09T22:37:53.746Z,14.50
2024-05-09T22:40:28.445Z,14.50
2024-05-09T22:43:04.879Z,14.50
2024-05-09T22:45:31.958Z,14.50
2024-05-09T22:47:59.364Z,14.50
2024-05-09T22:50:30.533Z,14.50
2024-05-09T22:52:59.522Z,14.50
2024-05-09T22:55:26.384Z,14.50
2024-05-09T22:57:53.299Z,14.50
2024-05-09T23:00:29.158Z,14.50
2024-05-09T23:03:02.816Z,14.50
2024-05-09T23:05:32.095Z,14.40
2024-05-09T23:08:00.219Z,14.40
2024-05-09T23:10:32.501Z,14.30
2024-05-09T23:13:04.196Z,14.30
2024-05-09T23:15:31.266Z,14.20
2024-05-09T23:17:58.832Z,14.10
2024-05-09T23:20:33.537Z,14.00
2024-05-09T23:23:08.848Z,14.00
2024-05-09T23:25:37.049Z,13.90
2024-05-09T23:28:04.588Z,13.80
2024-05-09T23:30:37.657Z,13.80
2024-05-09T23:33:10.578Z,13.70
2024-05-09T23:35:38.247Z,13.70
2024-05-09T23:38:05.317Z,13.60
2024-05-09T23:43:02.991Z,13.50
2024-05-09T23:45:30.067Z,13.50
2024-05-09T23:47:57.251Z,13.40
2024-05-09T23:50:33.064Z,13.40
2024-05-09T23:53:03.311Z,13.30
2024-05-09T23:55:31.455Z,13.30
2024-05-09T23:57:58.671Z,13.30
